Wharton, TX

9:11 AM CDT on September 01, 2014 (GMT -0500)
Wharton Regional | Change Station
CLOSE
Current Station
Airport
Location: Wharton,
Elevation: 102 ft
Nearby Weather Stations

Elev 102 ft 29.25 °N, 96.15 °W | Updated 16 minutes ago

Clear
Clear
80 °F
Feels Like 80 °F
N
6
Wind Variable Wind from ESE

Today
High -- | Low -- °F
--% Chance of Precip.
Yesterday
High -- | Low -- °F
Precip. -- in
7:01 AM 7:46 PM
Waxing Crescent, 41% visible
Pressure 29.96 in
Visibility 7.0 miles
Clouds Clear
Dew Point 77 °F
Humidity 91%
Rainfall 0.00 in
Snow Depth Not available.
UV 2 out of 12
Pollen 7.50 out of 12
Air Quality Not available.
Flu Activity Not available.
METAR KARM 011355Z AUTO 12005KT 7SM CLR 27/25 A2996 RMK AO2 T02660250

More Conditions Fewer Conditions

Pressure 29.96 in
Visibility 7.0 miles
Clouds Clear
Dew Point 77 °F
Humidity 91%
Rainfall 0.00 in
Snow Depth Not available.
UV 2 out of 12
Pollen 7.50 out of 12
Air Quality Not available.
Flu Activity Not available.
METAR KARM 011355Z AUTO 12005KT 7SM CLR 27/25 A2996 RMK AO2 T02660250

More Conditions Fewer Conditions

10-Day Weather Forecast

Almanac

Astronomy

Sep. 01, 2014 Rise Set
Actual Time 7:01 AM CDT 7:46 PM CDT
Civil Twilight 6:37 AM CDT 8:10 PM CDT
Nautical Twilight 6:09 AM CDT 8:38 PM CDT
Astronomical Twilight 5:40 AM CDT 9:07 PM CDT
Moon 1:17 PM CDT No Moon Set
Length of Visible Light 13h 32m
Length of Day
12h 44m
Tomorrow will be 1m 41s shorter.
Waxing Crescent, 41% of the Moon is Illuminated
Today
Waxing Crescent
Sep 2
First Quarter
Sep 8
Full
Sep 15
Last Quarter
Sep 24
New

Today's Extremes

State Highs State Lows

Community

WunderPhotos

Upload Photos

1,749,237 photos uploaded!

Nearby

Snow Depth

Station Depth Elevation
No new snow has been reported.

Earthquake Activity

City Distance Mag. Time & Date
No recent earthquake activity has been reported nearby.
Minimum magnitude displayed is 2.5.

Coastal Water Temperatures

Place Temperature
No Stations Reporting

Nearby Weather Stations